sensor_id;sensor_type;location;lat;lon;timestamp;temperature;humidity
420;DHT22;42600;54.408;13.016;2022-08-21T00:00:19;18.80;92.70
420;DHT22;42600;54.408;13.016;2022-08-21T00:02:49;18.70;92.70
420;DHT22;42600;54.408;13.016;2022-08-21T00:05:16;18.60;92.70
420;DHT22;42600;54.408;13.016;2022-08-21T00:07:43;18.50;92.70
420;DHT22;42600;54.408;13.016;2022-08-21T00:10:10;18.50;92.70
420;DHT22;42600;54.408;13.016;2022-08-21T00:12:37;18.50;92.70
420;DHT22;42600;54.408;13.016;2022-08-21T00:15:05;18.40;92.70
420;DHT22;42600;54.408;13.016;2022-08-21T00:17:33;18.30;92.70
420;DHT22;42600;54.408;13.016;2022-08-21T00:20:00;18.20;92.70
420;DHT22;42600;54.408;13.016;2022-08-21T00:22:27;18.30;92.70
420;DHT22;42600;54.408;13.016;2022-08-21T00:24:53;18.30;92.70
420;DHT22;42600;54.408;13.016;2022-08-21T00:27:20;18.20;92.70
420;DHT22;42600;54.408;13.016;2022-08-21T00:29:47;18.10;92.70
420;DHT22;42600;54.408;13.016;2022-08-21T00:32:19;18.00;92.70
420;DHT22;42600;54.408;13.016;2022-08-21T00:34:47;17.90;92.70
420;DHT22;42600;54.408;13.016;2022-08-21T00:37:14;17.90;92.70
420;DHT22;42600;54.408;13.016;2022-08-21T00:39:40;17.90;92.70
420;DHT22;42600;54.408;13.016;2022-08-21T00:42:07;17.90;92.70
420;DHT22;42600;54.408;13.016;2022-08-21T00:44:34;17.80;92.70
420;DHT22;42600;54.408;13.016;2022-08-21T00:47:00;17.80;92.70
420;DHT22;42600;54.408;13.016;2022-08-21T00:49:27;17.70;92.70
420;DHT22;42600;54.408;13.016;2022-08-21T00:51:57;17.70;92.70
420;DHT22;42600;54.408;13.016;2022-08-21T00:54:25;17.70;92.70
420;DHT22;42600;54.408;13.016;2022-08-21T00:56:56;17.70;92.70
420;DHT22;42600;54.408;13.016;2022-08-21T00:59:24;17.70;92.70
420;DHT22;42600;54.408;13.016;2022-08-21T01:01:51;17.70;92.70
420;DHT22;42600;54.408;13.016;2022-08-21T01:04:19;17.80;92.70
420;DHT22;42600;54.408;13.016;2022-08-21T01:06:46;17.80;92.70
420;DHT22;42600;54.408;13.016;2022-08-21T01:09:14;17.80;92.70
420;DHT22;42600;54.408;13.016;2022-08-21T01:11:41;17.90;92.70
420;DHT22;42600;54.408;13.016;2022-08-21T01:14:09;17.90;92.70
420;DHT22;42600;54.408;13.016;2022-08-21T01:16:38;17.80;92.70
420;DHT22;42600;54.408;13.016;2022-08-21T01:19:07;17.60;92.70
420;DHT22;42600;54.408;13.016;2022-08-21T01:21:35;17.50;92.70
420;DHT22;42600;54.408;13.016;2022-08-21T01:24:02;17.40;92.70
420;DHT22;42600;54.408;13.016;2022-08-21T01:26:32;17.40;92.70
420;DHT22;42600;54.408;13.016;2022-08-21T01:29:03;17.60;92.70
420;DHT22;42600;54.408;13.016;2022-08-21T01:31:32;17.60;92.70
420;DHT22;42600;54.408;13.016;2022-08-21T01:33:59;17.60;92.70
420;DHT22;42600;54.408;13.016;2022-08-21T01:36:25;17.60;92.70
420;DHT22;42600;54.408;13.016;2022-08-21T01:38:54;17.50;92.70
420;DHT22;42600;54.408;13.016;2022-08-21T01:41:21;17.40;92.70
420;DHT22;42600;54.408;13.016;2022-08-21T01:43:47;17.40;92.70
420;DHT22;42600;54.408;13.016;2022-08-21T01:46:15;17.40;92.70
420;DHT22;42600;54.408;13.016;2022-08-21T01:48:42;17.40;92.70
420;DHT22;42600;54.408;13.016;2022-08-21T01:51:09;17.30;92.70
420;DHT22;42600;54.408;13.016;2022-08-21T01:53:36;17.20;92.70
420;DHT22;42600;54.408;13.016;2022-08-21T01:56:07;17.20;92.70
420;DHT22;42600;54.408;13.016;2022-08-21T01:58:34;17.10;92.70
420;DHT22;42600;54.408;13.016;2022-08-21T02:01:03;17.10;92.70
420;DHT22;42600;54.408;13.016;2022-08-21T02:03:30;17.10;92.70
420;DHT22;42600;54.408;13.016;2022-08-21T02:05:57;17.10;92.70
420;DHT22;42600;54.408;13.016;2022-08-21T02:08:23;17.10;92.70
420;DHT22;42600;54.408;13.016;2022-08-21T02:10:51;17.10;92.70
420;DHT22;42600;54.408;13.016;2022-08-21T02:13:19;17.10;92.70
420;DHT22;42600;54.408;13.016;2022-08-21T02:15:46;17.10;92.70
420;DHT22;42600;54.408;13.016;2022-08-21T02:18:13;17.10;92.70
420;DHT22;42600;54.408;13.016;2022-08-21T02:20:42;17.10;92.70
420;DHT22;42600;54.408;13.016;2022-08-21T02:23:11;17.10;92.70
420;DHT22;42600;54.408;13.016;2022-08-21T02:25:38;17.10;92.70
420;DHT22;42600;54.408;13.016;2022-08-21T02:28:08;17.10;92.70
420;DHT22;42600;54.408;13.016;2022-08-21T02:30:40;17.20;92.70
420;DHT22;42600;54.408;13.016;2022-08-21T02:33:08;17.10;92.70
420;DHT22;42600;54.408;13.016;2022-08-21T02:35:35;17.10;92.70
420;DHT22;42600;54.408;13.016;2022-08-21T02:38:05;17.00;92.70
420;DHT22;42600;54.408;13.016;2022-08-21T02:40:35;17.00;92.70
420;DHT22;42600;54.408;13.016;2022-08-21T02:43:03;17.00;92.70
420;DHT22;42600;54.408;13.016;2022-08-21T02:45:31;17.10;92.70
420;DHT22;42600;54.408;13.016;2022-08-21T02:48:03;17.10;92.70
420;DHT22;42600;54.408;13.016;2022-08-21T02:50:35;17.20;92.70
420;DHT22;42600;54.408;13.016;2022-08-21T02:53:03;17.20;92.70
420;DHT22;42600;54.408;13.016;2022-08-21T02:55:31;17.30;92.70
420;DHT22;42600;54.408;13.016;2022-08-21T02:57:58;17.30;92.70
420;DHT22;42600;54.408;13.016;2022-08-21T03:00:27;17.30;92.70
420;DHT22;42600;54.408;13.016;2022-08-21T03:02:55;17.30;92.70
420;DHT22;42600;54.408;13.016;2022-08-21T03:05:24;17.30;92.70
420;DHT22;42600;54.408;13.016;2022-08-21T03:07:51;17.40;92.70
420;DHT22;42600;54.408;13.016;2022-08-21T03:10:19;17.60;92.70
420;DHT22;42600;54.408;13.016;2022-08-21T03:12:46;17.50;92.70
420;DHT22;42600;54.408;13.016;2022-08-21T03:15:16;17.60;92.70
420;DHT22;42600;54.408;13.016;2022-08-21T03:17:44;17.50;92.70
420;DHT22;42600;54.408;13.016;2022-08-21T03:20:13;17.50;92.70
420;DHT22;42600;54.408;13.016;2022-08-21T03:22:41;17.50;92.70
420;DHT22;42600;54.408;13.016;2022-08-21T03:25:09;17.40;92.70
420;DHT22;42600;54.408;13.016;2022-08-21T03:27:36;17.40;92.70
420;DHT22;42600;54.408;13.016;2022-08-21T03:30:05;17.40;92.70
420;DHT22;42600;54.408;13.016;2022-08-21T03:32:33;17.30;92.70
420;DHT22;42600;54.408;13.016;2022-08-21T03:35:00;17.30;92.70
420;DHT22;42600;54.408;13.016;2022-08-21T03:37:27;17.30;92.70
420;DHT22;42600;54.408;13.016;2022-08-21T03:39:55;17.20;92.70
420;DHT22;42600;54.408;13.016;2022-08-21T03:42:22;17.20;92.70
420;DHT22;42600;54.408;13.016;2022-08-21T03:44:49;17.20;92.70
420;DHT22;42600;54.408;13.016;2022-08-21T03:47:16;17.20;92.70
420;DHT22;42600;54.408;13.016;2022-08-21T03:49:42;17.20;92.70
420;DHT22;42600;54.408;13.016;2022-08-21T03:52:09;17.20;92.70
420;DHT22;42600;54.408;13.016;2022-08-21T03:54:35;17.10;92.70
420;DHT22;42600;54.408;13.016;2022-08-21T03:57:03;17.10;92.70
420;DHT22;42600;54.408;13.016;2022-08-21T03:59:30;17.20;92.70
420;DHT22;42600;54.408;13.016;2022-08-21T04:01:59;17.40;92.70
420;DHT22;42600;54.408;13.016;2022-08-21T04:04:27;17.50;92.70
420;DHT22;42600;54.408;13.016;2022-08-21T04:06:54;17.50;92.70
420;DHT22;42600;54.408;13.016;2022-08-21T04:09:21;17.50;92.70
420;DHT22;42600;54.408;13.016;2022-08-21T04:11:48;17.60;92.70
420;DHT22;42600;54.408;13.016;2022-08-21T04:14:17;17.60;92.70
420;DHT22;42600;54.408;13.016;2022-08-21T04:16:44;17.70;92.70
420;DHT22;42600;54.408;13.016;2022-08-21T04:19:12;17.70;92.70
420;DHT22;42600;54.408;13.016;2022-08-21T04:21:40;17.80;92.70
420;DHT22;42600;54.408;13.016;2022-08-21T04:24:08;17.80;92.70
420;DHT22;42600;54.408;13.016;2022-08-21T04:26:35;17.80;92.70
420;DHT22;42600;54.408;13.016;2022-08-21T04:29:03;17.80;92.70
420;DHT22;42600;54.408;13.016;2022-08-21T04:31:33;17.90;92.70
420;DHT22;42600;54.408;13.016;2022-08-21T04:34:00;17.90;92.70
420;DHT22;42600;54.408;13.016;2022-08-21T04:36:26;18.00;92.70
420;DHT22;42600;54.408;13.016;2022-08-21T04:38:53;18.00;92.70
420;DHT22;42600;54.408;13.016;2022-08-21T04:41:20;18.00;92.70
420;DHT22;42600;54.408;13.016;2022-08-21T04:43:46;18.00;92.70
420;DHT22;42600;54.408;13.016;2022-08-21T04:46:13;18.10;92.70
420;DHT22;42600;54.408;13.016;2022-08-21T04:48:41;18.10;92.70
420;DHT22;42600;54.408;13.016;2022-08-21T04:51:09;18.10;92.70
420;DHT22;42600;54.408;13.016;2022-08-21T04:53:41;18.10;92.70
420;DHT22;42600;54.408;13.016;2022-08-21T04:56:11;18.10;92.70
420;DHT22;42600;54.408;13.016;2022-08-21T04:58:39;18.10;92.70
420;DHT22;42600;54.408;13.016;2022-08-21T05:01:14;18.10;92.70
420;DHT22;42600;54.408;13.016;2022-08-21T05:03:44;18.10;92.70
420;DHT22;42600;54.408;13.016;2022-08-21T05:06:11;18.10;92.70
420;DHT22;42600;54.408;13.016;2022-08-21T05:08:40;18.10;92.70
420;DHT22;42600;54.408;13.016;2022-08-21T05:11:07;18.10;92.70
420;DHT22;42600;54.408;13.016;2022-08-21T05:13:34;18.20;92.70
420;DHT22;42600;54.408;13.016;2022-08-21T05:16:02;18.20;92.70
420;DHT22;42600;54.408;13.016;2022-08-21T05:18:29;18.20;92.70
420;DHT22;42600;54.408;13.016;2022-08-21T05:20:57;18.20;92.70
420;DHT22;42600;54.408;13.016;2022-08-21T05:23:24;18.20;92.70
420;DHT22;42600;54.408;13.016;2022-08-21T05:25:51;18.20;92.70
420;DHT22;42600;54.408;13.016;2022-08-21T05:28:18;18.20;92.70
420;DHT22;42600;54.408;13.016;2022-08-21T05:30:45;18.20;92.70
420;DHT22;42600;54.408;13.016;2022-08-21T05:33:11;18.30;92.70
420;DHT22;42600;54.408;13.016;2022-08-21T05:35:38;18.30;92.70
420;DHT22;42600;54.408;13.016;2022-08-21T05:38:06;18.30;92.70
420;DHT22;42600;54.408;13.016;2022-08-21T05:40:33;18.30;92.70
420;DHT22;42600;54.408;13.016;2022-08-21T05:43:00;18.30;92.70
420;DHT22;42600;54.408;13.016;2022-08-21T05:45:29;18.30;92.70
420;DHT22;42600;54.408;13.016;2022-08-21T05:47:56;18.40;92.70
420;DHT22;42600;54.408;13.016;2022-08-21T05:50:23;18.40;92.70
420;DHT22;42600;54.408;13.016;2022-08-21T05:52:50;18.40;92.70
420;DHT22;42600;54.408;13.016;2022-08-21T05:55:18;18.50;92.70
420;DHT22;42600;54.408;13.016;2022-08-21T05:57:44;18.50;92.70
420;DHT22;42600;54.408;13.016;2022-08-21T06:00:12;18.60;92.70
420;DHT22;42600;54.408;13.016;2022-08-21T06:02:38;18.70;92.70
420;DHT22;42600;54.408;13.016;2022-08-21T06:05:06;18.70;92.70
420;DHT22;42600;54.408;13.016;2022-08-21T06:07:32;18.80;92.70
420;DHT22;42600;54.408;13.016;2022-08-21T06:09:59;18.80;92.70
420;DHT22;42600;54.408;13.016;2022-08-21T06:12:27;18.90;92.70
420;DHT22;42600;54.408;13.016;2022-08-21T06:14:54;18.90;92.70
420;DHT22;42600;54.408;13.016;2022-08-21T06:17:20;19.00;92.70
420;DHT22;42600;54.408;13.016;2022-08-21T06:19:50;19.00;92.70
420;DHT22;42600;54.408;13.016;2022-08-21T06:22:17;19.10;92.70
420;DHT22;42600;54.408;13.016;2022-08-21T06:24:44;19.10;92.70
420;DHT22;42600;54.408;13.016;2022-08-21T06:27:10;19.20;92.70
420;DHT22;42600;54.408;13.016;2022-08-21T06:29:38;19.30;92.70
420;DHT22;42600;54.408;13.016;2022-08-21T06:32:05;19.40;92.70
420;DHT22;42600;54.408;13.016;2022-08-21T06:34:36;19.40;92.40
420;DHT22;42600;54.408;13.016;2022-08-21T06:37:03;19.50;92.30
420;DHT22;42600;54.408;13.016;2022-08-21T06:39:30;19.60;92.30
420;DHT22;42600;54.408;13.016;2022-08-21T06:41:56;19.60;92.20
420;DHT22;42600;54.408;13.016;2022-08-21T06:44:23;19.70;91.80
420;DHT22;42600;54.408;13.016;2022-08-21T06:46:51;19.70;91.80
420;DHT22;42600;54.408;13.016;2022-08-21T06:49:18;19.80;91.70
420;DHT22;42600;54.408;13.016;2022-08-21T06:51:44;19.80;91.50
420;DHT22;42600;54.408;13.016;2022-08-21T06:54:11;19.90;91.00
420;DHT22;42600;54.408;13.016;2022-08-21T06:56:38;19.90;91.40
420;DHT22;42600;54.408;13.016;2022-08-21T06:59:04;20.00;90.90
420;DHT22;42600;54.408;13.016;2022-08-21T07:01:32;20.00;90.70
420;DHT22;42600;54.408;13.016;2022-08-21T07:04:00;20.00;90.40
420;DHT22;42600;54.408;13.016;2022-08-21T07:06:26;20.10;90.10
420;DHT22;42600;54.408;13.016;2022-08-21T07:08:53;20.10;90.40
420;DHT22;42600;54.408;13.016;2022-08-21T07:11:22;20.20;90.20
420;DHT22;42600;54.408;13.016;2022-08-21T07:13:49;20.20;90.00
420;DHT22;42600;54.408;13.016;2022-08-21T07:16:18;20.30;89.70
420;DHT22;42600;54.408;13.016;2022-08-21T07:18:44;20.30;89.80
420;DHT22;42600;54.408;13.016;2022-08-21T07:21:12;20.40;89.60
420;DHT22;42600;54.408;13.016;2022-08-21T07:23:41;20.40;89.70
420;DHT22;42600;54.408;13.016;2022-08-21T07:26:08;20.50;89.90
420;DHT22;42600;54.408;13.016;2022-08-21T07:28:35;20.60;89.40
420;DHT22;42600;54.408;13.016;2022-08-21T07:31:03;20.60;89.10
420;DHT22;42600;54.408;13.016;2022-08-21T07:33:33;20.70;88.90
420;DHT22;42600;54.408;13.016;2022-08-21T07:36:00;20.70;88.60
420;DHT22;42600;54.408;13.016;2022-08-21T07:38:28;20.80;88.30
420;DHT22;42600;54.408;13.016;2022-08-21T07:40:56;20.80;87.90
420;DHT22;42600;54.408;13.016;2022-08-21T07:43:24;20.90;87.70
420;DHT22;42600;54.408;13.016;2022-08-21T07:45:51;20.90;87.40
420;DHT22;42600;54.408;13.016;2022-08-21T07:48:19;20.90;87.00
420;DHT22;42600;54.408;13.016;2022-08-21T07:50:45;21.00;86.90
420;DHT22;42600;54.408;13.016;2022-08-21T07:53:13;21.10;87.10
420;DHT22;42600;54.408;13.016;2022-08-21T07:55:41;21.20;86.80
420;DHT22;42600;54.408;13.016;2022-08-21T07:58:08;21.20;86.60
420;DHT22;42600;54.408;13.016;2022-08-21T08:00:34;21.30;86.30
420;DHT22;42600;54.408;13.016;2022-08-21T08:03:01;21.30;86.20
420;DHT22;42600;54.408;13.016;2022-08-21T08:05:29;21.40;85.80
420;DHT22;42600;54.408;13.016;2022-08-21T08:07:57;21.50;85.40
420;DHT22;42600;54.408;13.016;2022-08-21T08:10:24;21.50;85.20
420;DHT22;42600;54.408;13.016;2022-08-21T08:12:53;21.50;84.90
420;DHT22;42600;54.408;13.016;2022-08-21T08:15:22;21.50;84.30
420;DHT22;42600;54.408;13.016;2022-08-21T08:17:49;21.60;84.70
420;DHT22;42600;54.408;13.016;2022-08-21T08:20:17;21.70;84.60
420;DHT22;42600;54.408;13.016;2022-08-21T08:22:45;21.70;84.30
420;DHT22;42600;54.408;13.016;2022-08-21T08:25:13;21.80;83.60
420;DHT22;42600;54.408;13.016;2022-08-21T08:27:40;21.80;84.40
420;DHT22;42600;54.408;13.016;2022-08-21T08:30:12;21.90;83.50
420;DHT22;42600;54.408;13.016;2022-08-21T08:32:39;22.00;82.90
420;DHT22;42600;54.408;13.016;2022-08-21T08:35:07;21.90;82.20
420;DHT22;42600;54.408;13.016;2022-08-21T08:37:34;21.80;82.90
420;DHT22;42600;54.408;13.016;2022-08-21T08:40:04;22.00;84.00
420;DHT22;42600;54.408;13.016;2022-08-21T08:42:34;22.10;83.70
420;DHT22;42600;54.408;13.016;2022-08-21T08:45:04;22.20;83.30
420;DHT22;42600;54.408;13.016;2022-08-21T08:47:34;22.30;83.10
420;DHT22;42600;54.408;13.016;2022-08-21T08:50:04;22.40;82.10
420;DHT22;42600;54.408;13.016;2022-08-21T08:52:34;22.40;82.30
420;DHT22;42600;54.408;13.016;2022-08-21T08:55:05;22.60;82.00
420;DHT22;42600;54.408;13.016;2022-08-21T08:57:32;22.50;81.80
420;DHT22;42600;54.408;13.016;2022-08-21T09:00:06;22.70;82.70
420;DHT22;42600;54.408;13.016;2022-08-21T09:02:37;22.80;80.40
420;DHT22;42600;54.408;13.016;2022-08-21T09:05:05;22.60;80.60
420;DHT22;42600;54.408;13.016;2022-08-21T09:07:40;22.80;82.00
420;DHT22;42600;54.408;13.016;2022-08-21T09:10:17;22.70;79.10
420;DHT22;42600;54.408;13.016;2022-08-21T09:12:51;22.80;80.30
420;DHT22;42600;54.408;13.016;2022-08-21T09:15:27;22.70;79.40
420;DHT22;42600;54.408;13.016;2022-08-21T09:18:07;22.60;79.90
420;DHT22;42600;54.408;13.016;2022-08-21T09:20:40;22.60;80.30
420;DHT22;42600;54.408;13.016;2022-08-21T09:23:26;22.80;79.90
420;DHT22;42600;54.408;13.016;2022-08-21T09:26:05;22.90;78.70
420;DHT22;42600;54.408;13.016;2022-08-21T09:28:33;22.80;78.10
420;DHT22;42600;54.408;13.016;2022-08-21T09:31:03;22.90;80.00
420;DHT22;42600;54.408;13.016;2022-08-21T09:33:31;23.10;79.80
420;DHT22;42600;54.408;13.016;2022-08-21T09:35:57;23.20;80.90
420;DHT22;42600;54.408;13.016;2022-08-21T09:38:27;23.30;78.80
420;DHT22;42600;54.408;13.016;2022-08-21T09:40:57;23.40;78.30
420;DHT22;42600;54.408;13.016;2022-08-21T09:43:25;23.40;76.60
420;DHT22;42600;54.408;13.016;2022-08-21T09:46:03;23.30;75.30
420;DHT22;42600;54.408;13.016;2022-08-21T09:48:42;23.40;79.10
420;DHT22;42600;54.408;13.016;2022-08-21T09:51:13;23.60;77.10
420;DHT22;42600;54.408;13.016;2022-08-21T09:53:44;23.40;75.30
420;DHT22;42600;54.408;13.016;2022-08-21T09:56:24;23.30;74.90
420;DHT22;42600;54.408;13.016;2022-08-21T09:59:24;23.40;77.90
420;DHT22;42600;54.408;13.016;2022-08-21T10:01:51;23.60;75.40
420;DHT22;42600;54.408;13.016;2022-08-21T10:04:24;23.40;72.70
420;DHT22;42600;54.408;13.016;2022-08-21T10:06:50;23.40;71.60
420;DHT22;42600;54.408;13.016;2022-08-21T10:09:19;23.00;72.60
420;DHT22;42600;54.408;13.016;2022-08-21T10:11:52;22.80;71.50
420;DHT22;42600;54.408;13.016;2022-08-21T10:14:31;22.60;74.20
420;DHT22;42600;54.408;13.016;2022-08-21T10:17:04;22.50;73.50
420;DHT22;42600;54.408;13.016;2022-08-21T10:19:40;22.40;72.60
420;DHT22;42600;54.408;13.016;2022-08-21T10:22:18;22.60;72.00
420;DHT22;42600;54.408;13.016;2022-08-21T10:24:52;23.00;76.60
420;DHT22;42600;54.408;13.016;2022-08-21T10:27:28;23.40;70.60
420;DHT22;42600;54.408;13.016;2022-08-21T10:30:00;23.60;73.90
420;DHT22;42600;54.408;13.016;2022-08-21T10:32:42;23.60;68.30
420;DHT22;42600;54.408;13.016;2022-08-21T10:35:14;23.40;70.80
420;DHT22;42600;54.408;13.016;2022-08-21T10:37:56;23.60;74.00
420;DHT22;42600;54.408;13.016;2022-08-21T10:40:29;24.00;72.10
420;DHT22;42600;54.408;13.016;2022-08-21T10:43:04;24.00;68.80
420;DHT22;42600;54.408;13.016;2022-08-21T10:45:42;23.70;68.00
420;DHT22;42600;54.408;13.016;2022-08-21T10:48:18;23.50;69.40
420;DHT22;42600;54.408;13.016;2022-08-21T10:50:52;23.70;69.90
420;DHT22;42600;54.408;13.016;2022-08-21T10:53:36;23.70;69.90
420;DHT22;42600;54.408;13.016;2022-08-21T10:56:14;23.60;69.30
420;DHT22;42600;54.408;13.016;2022-08-21T10:58:49;23.60;67.90
420;DHT22;42600;54.408;13.016;2022-08-21T11:01:21;23.20;68.60
420;DHT22;42600;54.408;13.016;2022-08-21T11:03:53;23.10;68.40
420;DHT22;42600;54.408;13.016;2022-08-21T11:06:24;23.00;69.20
420;DHT22;42600;54.408;13.016;2022-08-21T11:08:53;23.30;71.00
420;DHT22;42600;54.408;13.016;2022-08-21T11:11:26;23.20;69.50
420;DHT22;42600;54.408;13.016;2022-08-21T11:13:56;23.10;67.90
420;DHT22;42600;54.408;13.016;2022-08-21T11:16:32;23.20;70.40
420;DHT22;42600;54.408;13.016;2022-08-21T11:19:04;23.50;70.00
420;DHT22;42600;54.408;13.016;2022-08-21T11:21:37;23.50;67.70
420;DHT22;42600;54.408;13.016;2022-08-21T11:24:19;23.20;68.40
420;DHT22;42600;54.408;13.016;2022-08-21T11:26:52;23.10;68.60
420;DHT22;42600;54.408;13.016;2022-08-21T11:29:23;23.40;72.10
420;DHT22;42600;54.408;13.016;2022-08-21T11:31:59;23.60;68.00
420;DHT22;42600;54.408;13.016;2022-08-21T11:34:40;23.40;69.60
420;DHT22;42600;54.408;13.016;2022-08-21T11:37:17;23.60;71.70
420;DHT22;42600;54.408;13.016;2022-08-21T11:40:05;23.70;70.60
420;DHT22;42600;54.408;13.016;2022-08-21T11:42:43;23.70;69.80
420;DHT22;42600;54.408;13.016;2022-08-21T11:45:20;23.60;72.20
420;DHT22;42600;54.408;13.016;2022-08-21T11:47:58;24.20;72.00
420;DHT22;42600;54.408;13.016;2022-08-21T11:50:29;24.00;71.20
420;DHT22;42600;54.408;13.016;2022-08-21T11:53:05;23.80;71.60
420;DHT22;42600;54.408;13.016;2022-08-21T11:55:38;23.70;71.60
420;DHT22;42600;54.408;13.016;2022-08-21T11:58:10;23.80;70.70
420;DHT22;42600;54.408;13.016;2022-08-21T12:00:41;23.50;70.70
420;DHT22;42600;54.408;13.016;2022-08-21T12:03:13;23.40;71.40
420;DHT22;42600;54.408;13.016;2022-08-21T12:05:42;23.80;71.80
420;DHT22;42600;54.408;13.016;2022-08-21T12:08:14;23.80;70.80
420;DHT22;42600;54.408;13.016;2022-08-21T12:10:46;23.60;71.70
420;DHT22;42600;54.408;13.016;2022-08-21T12:13:23;23.80;73.60
420;DHT22;42600;54.408;13.016;2022-08-21T12:15:50;24.10;72.60
420;DHT22;42600;54.408;13.016;2022-08-21T12:18:23;23.90;73.90
420;DHT22;42600;54.408;13.016;2022-08-21T12:20:59;24.50;75.40
420;DHT22;42600;54.408;13.016;2022-08-21T12:23:29;24.20;69.70
420;DHT22;42600;54.408;13.016;2022-08-21T12:26:20;23.90;70.00
420;DHT22;42600;54.408;13.016;2022-08-21T12:28:48;24.20;71.80
420;DHT22;42600;54.408;13.016;2022-08-21T12:31:21;23.90;70.50
420;DHT22;42600;54.408;13.016;2022-08-21T12:33:53;24.00;71.50
420;DHT22;42600;54.408;13.016;2022-08-21T12:36:23;24.30;69.80
420;DHT22;42600;54.408;13.016;2022-08-21T12:38:55;24.40;70.20
420;DHT22;42600;54.408;13.016;2022-08-21T12:41:27;24.10;69.00
420;DHT22;42600;54.408;13.016;2022-08-21T12:43:58;23.80;69.40
420;DHT22;42600;54.408;13.016;2022-08-21T12:46:31;24.40;69.50
420;DHT22;42600;54.408;13.016;2022-08-21T12:49:02;24.20;70.00
420;DHT22;42600;54.408;13.016;2022-08-21T12:51:34;24.10;69.30
420;DHT22;42600;54.408;13.016;2022-08-21T12:54:04;24.00;69.90
420;DHT22;42600;54.408;13.016;2022-08-21T12:56:33;24.30;68.80
420;DHT22;42600;54.408;13.016;2022-08-21T12:59:03;24.10;70.40
420;DHT22;42600;54.408;13.016;2022-08-21T13:01:33;24.30;67.80
420;DHT22;42600;54.408;13.016;2022-08-21T13:04:02;23.90;67.50
420;DHT22;42600;54.408;13.016;2022-08-21T13:06:36;23.90;70.10
420;DHT22;42600;54.408;13.016;2022-08-21T13:09:07;24.40;73.10
420;DHT22;42600;54.408;13.016;2022-08-21T13:11:35;24.40;67.50
420;DHT22;42600;54.408;13.016;2022-08-21T13:14:03;24.40;68.70
420;DHT22;42600;54.408;13.016;2022-08-21T13:16:31;24.30;65.50
420;DHT22;42600;54.408;13.016;2022-08-21T13:19:00;23.90;65.00
420;DHT22;42600;54.408;13.016;2022-08-21T13:21:29;23.90;66.90
420;DHT22;42600;54.408;13.016;2022-08-21T13:24:10;24.10;65.50
420;DHT22;42600;54.408;13.016;2022-08-21T13:26:38;24.00;66.40
420;DHT22;42600;54.408;13.016;2022-08-21T13:29:06;23.90;66.00
420;DHT22;42600;54.408;13.016;2022-08-21T13:31:33;23.90;66.90
420;DHT22;42600;54.408;13.016;2022-08-21T13:34:00;24.10;68.70
420;DHT22;42600;54.408;13.016;2022-08-21T13:36:31;24.60;71.50
420;DHT22;42600;54.408;13.016;2022-08-21T13:38:58;24.70;68.20
420;DHT22;42600;54.408;13.016;2022-08-21T13:41:29;24.50;67.50
420;DHT22;42600;54.408;13.016;2022-08-21T13:43:59;24.50;70.50
420;DHT22;42600;54.408;13.016;2022-08-21T13:46:28;24.50;70.50
420;DHT22;42600;54.408;13.016;2022-08-21T13:48:55;24.50;68.10
420;DHT22;42600;54.408;13.016;2022-08-21T13:51:22;24.40;67.20
420;DHT22;42600;54.408;13.016;2022-08-21T13:53:50;24.00;70.60
420;DHT22;42600;54.408;13.016;2022-08-21T13:56:23;24.90;73.40
420;DHT22;42600;54.408;13.016;2022-08-21T13:58:53;25.10;71.60
420;DHT22;42600;54.408;13.016;2022-08-21T14:01:23;24.70;67.40
420;DHT22;42600;54.408;13.016;2022-08-21T14:03:53;24.50;69.00
420;DHT22;42600;54.408;13.016;2022-08-21T14:06:25;24.90;70.30
420;DHT22;42600;54.408;13.016;2022-08-21T14:08:55;24.80;68.60
420;DHT22;42600;54.408;13.016;2022-08-21T14:11:22;24.70;67.50
420;DHT22;42600;54.408;13.016;2022-08-21T14:13:56;24.20;68.60
420;DHT22;42600;54.408;13.016;2022-08-21T14:16:25;24.20;68.90
420;DHT22;42600;54.408;13.016;2022-08-21T14:19:07;24.10;69.50
420;DHT22;42600;54.408;13.016;2022-08-21T14:21:36;24.00;70.50
420;DHT22;42600;54.408;13.016;2022-08-21T14:24:07;23.80;69.30
420;DHT22;42600;54.408;13.016;2022-08-21T14:26:36;23.90;70.00
420;DHT22;42600;54.408;13.016;2022-08-21T14:29:08;24.10;71.30
420;DHT22;42600;54.408;13.016;2022-08-21T14:31:35;24.10;70.10
420;DHT22;42600;54.408;13.016;2022-08-21T14:34:02;24.10;67.30
420;DHT22;42600;54.408;13.016;2022-08-21T14:36:28;24.10;68.20
420;DHT22;42600;54.408;13.016;2022-08-21T14:38:55;24.40;69.00
420;DHT22;42600;54.408;13.016;2022-08-21T14:41:23;24.10;65.70
420;DHT22;42600;54.408;13.016;2022-08-21T14:43:53;24.30;68.20
420;DHT22;42600;54.408;13.016;2022-08-21T14:46:24;24.50;64.80
420;DHT22;42600;54.408;13.016;2022-08-21T14:48:51;24.70;70.80
420;DHT22;42600;54.408;13.016;2022-08-21T14:51:18;24.60;65.60
420;DHT22;42600;54.408;13.016;2022-08-21T14:53:45;24.40;68.70
420;DHT22;42600;54.408;13.016;2022-08-21T14:56:13;25.00;71.00
420;DHT22;42600;54.408;13.016;2022-08-21T14:58:42;24.90;67.20
420;DHT22;42600;54.408;13.016;2022-08-21T15:01:10;24.50;67.20
420;DHT22;42600;54.408;13.016;2022-08-21T15:03:39;24.90;67.80
420;DHT22;42600;54.408;13.016;2022-08-21T15:06:07;24.40;65.60
420;DHT22;42600;54.408;13.016;2022-08-21T15:08:34;24.40;70.00
420;DHT22;42600;54.408;13.016;2022-08-21T15:11:03;24.40;67.20
420;DHT22;42600;54.408;13.016;2022-08-21T15:13:32;24.80;71.00
420;DHT22;42600;54.408;13.016;2022-08-21T15:15:58;24.60;64.70
420;DHT22;42600;54.408;13.016;2022-08-21T15:18:27;24.30;66.50
420;DHT22;42600;54.408;13.016;2022-08-21T15:20:55;24.10;66.70
420;DHT22;42600;54.408;13.016;2022-08-21T15:23:21;24.50;69.30
420;DHT22;42600;54.408;13.016;2022-08-21T15:25:49;24.90;66.10
420;DHT22;42600;54.408;13.016;2022-08-21T15:28:16;24.40;64.80
420;DHT22;42600;54.408;13.016;2022-08-21T15:30:44;24.60;68.10
420;DHT22;42600;54.408;13.016;2022-08-21T15:33:11;24.70;66.80
420;DHT22;42600;54.408;13.016;2022-08-21T15:35:38;24.60;66.40
420;DHT22;42600;54.408;13.016;2022-08-21T15:38:07;24.90;69.50
420;DHT22;42600;54.408;13.016;2022-08-21T15:40:34;25.20;67.70
420;DHT22;42600;54.408;13.016;2022-08-21T15:43:02;24.60;64.60
420;DHT22;42600;54.408;13.016;2022-08-21T15:45:29;24.30;65.90
420;DHT22;42600;54.408;13.016;2022-08-21T15:47:57;24.30;66.90
420;DHT22;42600;54.408;13.016;2022-08-21T15:50:24;24.30;66.10
420;DHT22;42600;54.408;13.016;2022-08-21T15:52:51;24.20;66.60
420;DHT22;42600;54.408;13.016;2022-08-21T15:55:20;24.60;67.30
420;DHT22;42600;54.408;13.016;2022-08-21T15:57:49;24.80;70.10